11 août 2022

Temps Code Temps Temp. Vue Base cloud Vent METAR/SPECI
18:20
V
28 °C 10 km+ 35.000 ft 100° 100° 7 kt METAR ETHN 111620Z 10007KT 9999 BKN350 28/04 Q1019 BLU+
17:20
V
29 °C 10 km+ 36.000 ft 100° 100° 9 kt METAR ETHN 111520Z 10009KT 9999 BKN360 29/04 Q1020 BLU+
17:00
V
28 °C 10 km+ 36.000 ft 100° 100° 9 kt METAR ETHN 111500Z 10009KT 9999 BKN360 28/04 Q1020 BLU+FCST CNL
16:20
V
29 °C 10 km+ 37.000 ft 070° 070° 13 kt METAR ETHN 111420Z 07013KT 9999 BKN370 29/05 Q1020 BLU+BLU+
15:20
V
29 °C 10 km+ 37.000 ft 090° 090° 10 - 20 kt METAR ETHN 111320Z 09010G20KT 9999 BKN370 29/04 Q1021 BLU+BLU+
14:20
V
28 °C 10 km+ - 080° 080° 10 kt METAR ETHN 111220Z 08010KT 9999 FEW090 SCT300 28/05 Q1021 BLU+BLU+
13:20
V
28 °C 10 km+ - 090° 090° 10 kt METAR ETHN 111120Z 09010KT 9999 FEW080 28/05 Q1022 BLU+BLU+
12:20
V
27 °C 10 km+ - 110° 110° 14 - 24 kt METAR ETHN 111020Z 11014G24KT 9999 FEW080 27/05 Q1022 BLU+BLU+
11:20
V
26 °C 10 km+ - 100° 100° 14 - 25 kt METAR ETHN 110920Z 10014G25KT 9999 FEW070 26/05 Q1022 BLU+BLU+
10:20
V
25 °C 10 km+ - 110° 110° 12 kt METAR ETHN 110820Z 11012KT 9999 FEW300 25/07 Q1023 BLU+BLU+
09:20
V
23 °C 10 km+ - 100° 100° 9 kt METAR ETHN 110720Z 10009KT 9999 23/08 Q1023 BLU+BLU+
08:20
V
20 °C 10 km+ - 090° 090° 6 kt METAR ETHN 110620Z 09006KT 9999 20/08 Q1023 BLU+BLU+
07:20
V
17 °C 10 km+ - 080° 080° 5 kt METAR ETHN 110520Z 08005KT 9999 17/07 Q1023 BLU+BLU+
06:20
V
15 °C 10 km+ - 090° 090° 6 kt METAR ETHN 110420Z 09006KT 9999 FEW080 15/07 Q1023 BLU+
05:20
V
15 °C 10 km+ - 090° 090° 8 kt METAR ETHN 110320Z 09008KT 9999 15/07 Q1022 BLU+
04:20
V
16 °C 10 km+ - 090° 090° 6 kt METAR ETHN 110220Z 09006KT 9999 16/06 Q1023 BLU+
03:20
V
16 °C 10 km+ - 090° 090° 7 kt METAR ETHN 110120Z 09007KT 9999 16/06 Q1023 BLU+
02:20
V
17 °C 10 km+ - 090° 090° 6 kt METAR ETHN 110020Z 09006KT 9999 17/06 Q1023 BLU+
01:20
V
17 °C 10 km+ - 090° 090° 7 kt METAR ETHN 102320Z 09007KT 9999 17/06 Q1023 BLU+
00:20
V
17 °C 10 km+ - 100° 100° 6 kt METAR ETHN 102220Z 10006KT 9999 17/05 Q1023 BLU+

10 août 2022

Temps Code Temps Temp. Vue Base cloud Vent METAR/SPECI
23:20
V
19 °C 10 km+ - 100° 100° 7 kt METAR ETHN 102120Z 10007KT 9999 19/05 Q1023 BLU+FCST CANCEL
22:20
V
20 °C 10 km+ - 100° 100° 8 kt METAR ETHN 102020Z 10008KT 9999 20/05 Q1023 BLU+BLU+
21:20
V
21 °C 10 km+ - 100° 100° 5 kt METAR ETHN 101920Z 10005KT 9999 21/05 Q1023 BLU+BLU+
20:20
V
23 °C 10 km+ - 100° 100° 6 kt METAR ETHN 101820Z 10006KT 9999 FEW350 23/04 Q1023 BLU+BLU+
19:20
V
26 °C 10 km+ - 100° 100° 9 kt METAR ETHN 101720Z 10009KT 9999 FEW080 26/04 Q1023 BLU+BLU+
18:20
V
27 °C 10 km+ - 100° 100° 10 kt METAR ETHN 101620Z 10010KT 9999 FEW080 27/04 Q1023 BLU+BLU+
17:20
V
28 °C 10 km+ - 110° 110° 7 kt METAR ETHN 101520Z 11007KT 9999 FEW080 28/04 Q1023 BLU+BLU+
16:20
V
28 °C 10 km+ - 070° 070° 12 kt METAR ETHN 101420Z 07012KT 9999 FEW080 28/05 Q1023 BLU+BLU+
15:20
V
28 °C 10 km+ - 090° 090° 12 kt METAR ETHN 101320Z 09012KT 9999 FEW080 SCT280 28/05 Q1024 BLU+BLU+
14:20
V
28 °C 10 km+ - 100° 100° 11 kt METAR ETHN 101220Z 10011KT 9999 FEW080 28/05 Q1024 BLU+BLU+
13:20
V
27 °C 10 km+ - 070° 070° 12 kt METAR ETHN 101120Z 07012KT 9999 FEW070 27/05 Q1025 BLU+BLU+
12:20
V
27 °C 10 km+ - 100° 100° 14 kt METAR ETHN 101020Z 10014KT 9999 FEW070 27/05 Q1025 BLU+BLU+
11:20
V
25 °C 10 km+ - 090° 090° 13 kt METAR ETHN 100920Z 09013KT 9999 FEW070 25/06 Q1025 BLU+BLU+
10:20
V
25 °C 10 km+ - 100° 100° 11 kt METAR ETHN 100820Z 10011KT 9999 FEW300 25/08 Q1025 BLU+BLU+
09:20
V
23 °C 10 km+ - 110° 110° 9 kt METAR ETHN 100720Z 11009KT 9999 FEW300 23/09 Q1026 BLU+BLU+
08:20
V
20 °C 10 km+ - 090° 090° 6 kt METAR ETHN 100620Z 09006KT 9999 FEW300 20/08 Q1026 BLU+BLU+
07:20
V
16 °C 10 km+ - 080° 080° 5 kt METAR ETHN 100520Z 08005KT 9999 FEW300 16/07 Q1025 BLU+BLU+
06:20
V
13 °C 10 km+ - 070° 070° 6 kt METAR ETHN 100420Z 07006KT 9999 FEW300 13/07 Q1025 BLU+BLU+
05:20
V
14 °C 10 km+ - 070° 070° 7 kt METAR ETHN 100320Z 07007KT 9999 FEW300 14/07 Q1025 BLU+
04:20
V
15 °C 10 km+ - 070° 070° 7 kt METAR ETHN 100220Z 07007KT 9999 15/07 Q1025 BLU+
03:20
V
16 °C 10 km+ - 080° 080° 7 kt METAR ETHN 100120Z 08007KT 9999 16/07 Q1025 BLU+
02:20
V
16 °C 10 km+ - 080° 080° 8 kt METAR ETHN 100020Z 08008KT 9999 16/07 Q1025 BLU+
01:20
V
17 °C 10 km+ - 080° 080° 7 kt METAR ETHN 092320Z 08007KT 9999 17/06 Q1025 BLU+
00:20
V
18 °C 10 km+ - 080° 080° 7 kt METAR ETHN 092220Z 08007KT 9999 18/06 Q1026 BLU+

9 août 2022

Temps Code Temps Temp. Vue Base cloud Vent METAR/SPECI
23:20
V
19 °C 10 km+ - 080° 080° 7 kt METAR ETHN 092120Z 08007KT 9999 19/06 Q1025 BLU+
22:20
V
20 °C 10 km+ - 080° 080° 5 kt METAR ETHN 092020Z 08005KT 9999 20/06 Q1025 BLU+
21:20
V
21 °C 10 km+ - 070° 070° 6 kt METAR ETHN 091920Z 07006KT 9999 FEW085 21/06 Q1025 BLU+
20:20
V
24 °C 10 km+ - 050° 050° 7 kt METAR ETHN 091820Z 05007KT 9999 FEW085 24/06 Q1024 BLU+
19:20
V
26 °C 10 km+ - 070° 070° 9 kt METAR ETHN 091720Z 07009KT 9999 FEW080 26/06 Q1024 BLU+
18:20
V
27 °C 10 km+ - 080° 080° 11 kt METAR ETHN 091620Z 08011KT 9999 FEW080 27/06 Q1024 BLU+
17:20
V
27 °C 10 km+ - 080° 080° 11 kt METAR ETHN 091520Z 08011KT 9999 FEW080 27/06 Q1025 BLU+
17:10
V
29 °C 10 km+ - 070° 070° 8 kt METAR ETHN 091510Z 07008KT 9999 FEW080 29/06 Q1024 BLU+FCST CANCEL
Données plus anciennes

Nous et des tiers suivons ton comportement sur Internet sur notre site Web à l'aide de cookies. Si tu continues, nous supposons que tu acceptes notre politique en matière de cookies. Apprendre plus